Time;durP1;ratioP1;P1;durP2;ratioP2;P2;SDS_P1;SDS_P2;PMS_P1;PMS_P2;Temp;Humidity;BMP_temperature;BMP_pressure;BME280_temperature;BME280_humidity;BME280_pressure;Samples;Min_cycle;Max_cycle;Signal;HPM_P1;HPM_P2
2021/04/04 00:01:05;;;;;;;3.85;1.55;;;;;;;2.66;70.53;100916.78;5104028;28;20035;-66
2021/04/04 00:03:32;;;;;;;9.10;2.20;;;;;;;2.63;70.45;100911.56;5104292;28;20043;-66
2021/04/04 00:05:57;;;;;;;8.73;1.98;;;;;;;2.60;70.17;100901.22;5104076;28;20110;-66
2021/04/04 00:08:23;;;;;;;6.57;2.45;;;;;;;2.55;70.18;100902.75;5104294;28;20031;-66
2021/04/04 00:10:48;;;;;;;3.03;1.98;;;;;;;2.52;69.98;100902.66;5103420;28;20024;-65
2021/04/04 00:13:13;;;;;;;6.50;2.42;;;;;;;2.44;69.97;100895.59;5085828;28;20039;-66
2021/04/04 00:15:40;;;;;;;4.93;2.45;;;;;;;2.33;70.28;100881.53;5104017;28;20032;-66
2021/04/04 00:18:06;;;;;;;4.43;2.20;;;;;;;2.21;70.44;100877.75;5104167;28;20024;-66
2021/04/04 00:20:32;;;;;;;6.75;2.30;;;;;;;2.16;70.55;100878.38;5103542;28;20088;-66
2021/04/04 00:22:57;;;;;;;5.00;2.20;;;;;;;2.14;70.25;100883.47;5104019;28;20042;-66
2021/04/04 00:25:22;;;;;;;6.47;2.20;;;;;;;1.98;70.54;100853.94;5104032;28;20303;-66
2021/04/04 00:27:48;;;;;;;8.20;2.95;;;;;;;2.08;69.87;100873.00;5103758;28;20055;-66
2021/04/04 00:30:17;;;;;;;8.35;2.38;;;;;;;1.97;70.10;100867.53;5103884;28;20048;-66
2021/04/04 00:32:43;;;;;;;6.80;2.67;;;;;;;1.91;70.12;100865.63;5086185;28;20027;-66
2021/04/04 00:35:13;;;;;;;7.05;2.70;;;;;;;1.84;70.29;100869.66;5103906;28;20084;-65
2021/04/04 00:37:39;;;;;;;6.45;2.50;;;;;;;1.82;70.41;100863.63;5103735;28;20028;-66
2021/04/04 00:40:12;;;;;;;6.28;2.47;;;;;;;1.84;70.71;100861.09;5103872;28;20042;-66
2021/04/04 00:42:38;;;;;;;5.15;2.22;;;;;;;1.85;70.44;100858.59;5103714;28;20024;-66
2021/04/04 00:45:28;;;;;;;6.13;2.45;;;;;;;1.89;70.48;100856.13;5103851;28;20079;-66
2021/04/04 00:47:54;;;;;;;5.50;1.88;;;;;;;1.91;70.41;100859.63;5091617;28;20515;-66
2021/04/04 00:50:26;;;;;;;10.77;2.40;;;;;;;1.95;70.71;100844.44;5103470;28;20089;-66
2021/04/04 00:52:54;;;;;;;5.50;3.85;;;;;;;2.02;70.52;100831.81;5103576;28;20020;-66
2021/04/04 00:55:20;;;;;;;5.60;2.67;;;;;;;2.05;71.08;100835.38;5103616;28;20423;-66
2021/04/04 00:57:46;;;;;;;5.28;2.03;;;;;;;2.10;71.55;100832.97;5085579;28;20118;-66
2021/04/04 01:00:15;;;;;;;5.55;2.05;;;;;;;2.15;72.59;100826.31;5103503;28;20027;-66
2021/04/04 01:02:41;;;;;;;5.50;2.10;;;;;;;2.20;73.64;100824.78;5103400;28;20491;-66
2021/04/04 01:05:10;;;;;;;9.35;2.22;;;;;;;2.28;73.84;100832.72;5103770;28;20035;-66
2021/04/04 01:07:35;;;;;;;5.60;2.15;;;;;;;2.36;73.70;100827.81;5103412;28;20035;-66
2021/04/04 01:10:05;;;;;;;5.75;2.00;;;;;;;2.45;73.74;100819.53;5103361;28;20027;-66
2021/04/04 01:12:49;;;;;;;6.35;2.08;;;;;;;2.48;73.52;100814.53;5103020;28;20024;-66
2021/04/04 01:15:28;;;;;;;4.35;2.08;;;;;;;2.50;73.89;100801.75;5103127;28;20376;-66
2021/04/04 01:17:55;;;;;;;7.10;1.67;;;;;;;2.51;74.20;100803.50;5103215;28;20031;-66
2021/04/04 01:20:49;;;;;;;6.97;1.52;;;;;;;2.55;74.58;100800.22;5102543;28;20099;-65
2021/04/04 01:23:39;;;;;;;4.88;2.10;;;;;;;2.58;74.31;100798.63;5102985;28;20036;-65
2021/04/04 01:26:18;;;;;;;3.30;1.40;;;;;;;2.58;74.30;100795.19;5106811;28;20016;-65
2021/04/04 01:28:44;;;;;;;8.70;2.22;;;;;;;2.60;73.61;100789.25;5106944;28;20032;-66
2021/04/04 01:31:11;;;;;;;7.68;2.55;;;;;;;2.59;73.63;100794.34;5106777;28;20046;-66
2021/04/04 01:33:39;;;;;;;5.25;1.45;;;;;;;2.56;73.51;100778.88;5106836;28;20024;-66
2021/04/04 01:36:10;;;;;;;7.22;2.03;;;;;;;2.54;73.48;100785.66;5106444;28;20404;-66
2021/04/04 01:38:40;;;;;;;8.67;2.27;;;;;;;2.50;73.73;100787.25;5106989;28;20043;-66
2021/04/04 01:41:29;;;;;;;5.00;1.83;;;;;;;2.45;73.87;100771.72;5106522;28;20345;-66
2021/04/04 01:43:58;;;;;;;2.47;1.60;;;;;;;2.48;73.43;100765.81;5106602;28;20016;-66
2021/04/04 01:46:26;;;;;;;3.45;1.42;;;;;;;2.44;73.62;100752.06;5106548;28;20020;-66
2021/04/04 01:48:53;;;;;;;5.00;1.50;;;;;;;2.51;73.72;100754.81;5106531;28;20054;-66
2021/04/04 01:51:21;;;;;;;3.70;1.45;;;;;;;2.53;73.59;100753.16;5106044;28;20024;-66
2021/04/04 01:53:48;;;;;;;11.45;2.35;;;;;;;2.53;73.12;100748.91;5106406;28;20066;-66
2021/04/04 01:56:14;;;;;;;8.27;2.35;;;;;;;2.56;73.09;100740.41;5106398;28;20043;-67
2021/04/04 01:58:41;;;;;;;5.65;1.88;;;;;;;2.55;73.13;100741.25;5106438;28;20035;-66
2021/04/04 02:01:07;;;;;;;4.05;2.13;;;;;;;2.48;73.03;100733.38;5106132;28;20031;-66
2021/04/04 02:03:34;;;;;;;10.75;2.10;;;;;;;2.41;72.87;100734.00;5106446;28;20031;-66
2021/04/04 02:06:00;;;;;;;5.95;2.40;;;;;;;2.34;72.86;100730.41;5106119;28;20039;-66
2021/04/04 02:08:27;;;;;;;14.85;2.78;;;;;;;2.28;72.84;100713.97;5106212;28;20079;-66
2021/04/04 02:10:54;;;;;;;6.30;2.30;;;;;;;2.21;73.11;100702.66;5106436;28;20099;-65
2021/04/04 02:13:20;;;;;;;6.10;2.38;;;;;;;2.15;73.31;100695.66;5105978;28;20036;-66
2021/04/04 02:15:47;;;;;;;4.93;2.33;;;;;;;2.10;73.21;100694.63;5106422;28;20047;-66
2021/04/04 02:18:14;;;;;;;8.25;3.65;;;;;;;2.04;73.33;100695.34;5087792;28;20020;-66
2021/04/04 02:20:41;;;;;;;8.10;2.70;;;;;;;1.98;73.38;100696.00;5105543;28;20024;-65
2021/04/04 02:23:10;;;;;;;7.78;3.50;;;;;;;1.92;73.37;100693.25;5105797;28;20065;-66
2021/04/04 02:25:36;;;;;;;10.63;2.90;;;;;;;1.87;73.34;100697.34;5105893;28;20102;-66
2021/04/04 02:28:04;;;;;;;9.10;2.70;;;;;;;1.84;73.79;100692.13;5105698;28;20040;-66
2021/04/04 02:30:30;;;;;;;6.80;3.00;;;;;;;1.76;73.77;100679.06;5105835;28;20462;-66
2021/04/04 02:32:59;;;;;;;11.30;2.85;;;;;;;1.83;73.92;100692.94;5105130;28;20035;-66
2021/04/04 02:35:30;;;;;;;9.40;3.70;;;;;;;1.83;74.19;100690.38;5105553;28;20059;-65
2021/04/04 02:38:00;;;;;;;13.07;3.22;;;;;;;1.85;74.14;100688.75;5105693;28;20028;-66
2021/04/04 02:40:26;;;;;;;8.15;2.60;;;;;;;1.85;74.68;100689.59;5105663;28;20028;-66
2021/04/04 02:42:54;;;;;;;10.50;3.40;;;;;;;1.89;74.60;100685.47;5105388;28;20044;-66
2021/04/04 02:45:23;;;;;;;6.63;2.97;;;;;;;1.89;74.70;100670.09;5105485;28;20028;-65
2021/04/04 02:48:02;;;;;;;7.10;3.08;;;;;;;1.90;74.70;100665.84;5105424;28;20027;-66
2021/04/04 02:50:29;;;;;;;8.93;3.50;;;;;;;1.88;74.73;100664.94;5105056;28;20051;-65
2021/04/04 02:53:00;;;;;;;7.47;2.88;;;;;;;1.92;75.04;100652.28;5105180;28;20027;-65
2021/04/04 02:55:28;;;;;;;25.17;4.00;;;;;;;1.90;75.03;100643.66;5105505;28;20038;-65
2021/04/04 02:57:55;;;;;;;11.63;3.88;;;;;;;1.85;75.12;100632.44;5105566;28;20105;-65
2021/04/04 03:00:22;;;;;;;8.93;3.63;;;;;;;1.85;75.24;100633.28;5105116;28;20303;-65
2021/04/04 03:02:53;;;;;;;12.35;3.75;;;;;;;1.81;75.54;100636.56;5105199;28;20042;-65
2021/04/04 03:05:22;;;;;;;8.07;3.35;;;;;;;1.79;75.59;100627.97;5105213;28;20020;-65
2021/04/04 03:07:48;;;;;;;11.70;3.38;;;;;;;1.79;75.66;100632.25;5104909;28;20023;-65
2021/04/04 03:10:14;;;;;;;8.82;4.00;;;;;;;1.73;76.05;100622.66;5105359;28;20020;-65
2021/04/04 03:12:40;;;;;;;12.60;3.65;;;;;;;1.70;76.18;100622.56;5104996;28;20032;-65
2021/04/04 03:15:10;;;;;;;12.07;4.53;;;;;;;1.69;76.22;100610.59;5105219;28;20024;-65
2021/04/04 03:17:39;;;;;;;9.88;5.13;;;;;;;1.77;76.80;100585.25;5105217;28;20048;-65
2021/04/04 03:20:06;;;;;;;5.45;3.30;;;;;;;1.80;77.19;100588.78;5104840;28;20016;-65
2021/04/04 03:22:34;;;;;;;18.25;5.55;;;;;;;1.83;76.99;100580.31;5104690;28;20099;-65
2021/04/04 03:25:01;;;;;;;9.68;4.20;;;;;;;1.88;76.75;100573.63;5105166;28;20035;-65
2021/04/04 03:27:27;;;;;;;16.30;4.85;;;;;;;1.89;76.80;100583.03;5086559;28;20489;-65
2021/04/04 03:29:53;;;;;;;10.68;4.85;;;;;;;1.89;76.73;100582.16;5104746;28;20072;-65
2021/04/04 03:32:18;;;;;;;15.70;4.57;;;;;;;1.85;76.95;100560.75;5104655;28;20089;-65
2021/04/04 03:34:44;;;;;;;11.77;4.60;;;;;;;1.89;77.09;100572.81;5104567;28;20020;-65
2021/04/04 03:37:11;;;;;;;14.02;4.72;;;;;;;1.93;77.23;100566.09;5104545;28;20024;-65
2021/04/04 03:39:36;;;;;;;17.27;6.38;;;;;;;2.01;77.24;100559.50;5104566;28;20020;-65
2021/04/04 03:42:03;;;;;;;18.65;5.00;;;;;;;2.09;78.02;100559.72;5104665;28;20020;-66
2021/04/04 03:44:32;;;;;;;11.50;5.35;;;;;;;2.19;79.30;100550.63;5103882;28;20024;-65
2021/04/04 03:46:58;;;;;;;17.83;4.32;;;;;;;2.32;79.82;100542.44;5104481;28;20028;-66
2021/04/04 03:49:24;;;;;;;12.75;4.57;;;;;;;2.51;80.05;100536.97;5104451;28;20023;-66
2021/04/04 03:51:59;;;;;;;17.30;4.30;;;;;;;2.69;80.28;100542.56;5104066;28;20020;-66
2021/04/04 03:54:25;;;;;;;7.35;2.72;;;;;;;2.83;80.39;100537.78;5104549;28;20074;-66
2021/04/04 03:56:53;;;;;;;23.90;7.20;;;;;;;3.00;80.71;100526.22;5104407;28;20020;-65
2021/04/04 03:59:22;;;;;;;16.15;3.85;;;;;;;3.14;80.53;100516.28;5104258;28;20050;-66
2021/04/04 04:01:49;;;;;;;13.93;4.40;;;;;;;3.21;80.66;100515.63;5104270;28;20024;-66
2021/04/04 04:04:15;;;;;;;21.40;5.85;;;;;;;3.31;80.40;100511.53;5104298;28;20024;-65
2021/04/04 04:06:48;;;;;;;28.92;7.20;;;;;;;3.38;80.15;100518.56;5103772;28;20023;-66
2021/04/04 04:09:15;;;;;;;16.85;5.85;;;;;;;3.43;80.04;100501.59;5104120;28;20016;-66
2021/04/04 04:11:43;;;;;;;29.33;6.63;;;;;;;3.50;79.79;100484.59;5103876;28;20446;-66
2021/04/04 04:14:12;;;;;;;15.93;6.63;;;;;;;3.58;79.63;100495.03;5085756;28;20024;-65
2021/04/04 04:16:38;;;;;;;17.98;5.32;;;;;;;3.61;79.35;100478.84;5103889;28;20504;-66
2021/04/04 04:19:05;;;;;;;26.70;7.97;;;;;;;3.66;79.58;100482.38;5103874;28;20050;-65
2021/04/04 04:21:36;;;;;;;31.42;7.80;;;;;;;3.72;79.58;100469.69;5103518;28;20028;-65
2021/04/04 04:24:08;;;;;;;22.67;7.53;;;;;;;3.76;79.37;100458.63;5103854;28;20035;-66
2021/04/04 04:26:35;;;;;;;24.80;7.25;;;;;;;3.80;79.34;100449.28;5103677;28;20043;-65
2021/04/04 04:29:01;;;;;;;11.95;4.70;;;;;;;3.75;79.38;100440.59;5103973;28;20443;-67
2021/04/04 04:31:32;;;;;;;21.25;5.65;;;;;;;3.78;79.25;100448.38;5103625;28;20020;-66
2021/04/04 04:34:01;;;;;;;16.33;5.28;;;;;;;3.74;79.40;100444.03;5103799;28;20539;-66
2021/04/04 04:36:26;;;;;;;24.40;6.05;;;;;;;3.72;79.55;100457.69;5103506;28;20024;-65
2021/04/04 04:38:52;;;;;;;26.00;6.43;;;;;;;3.73;79.73;100458.56;5103813;28;20073;-65
2021/04/04 04:41:19;;;;;;;21.92;5.90;;;;;;;3.78;79.58;100445.81;5103423;28;20030;-66
2021/04/04 04:43:51;;;;;;;19.48;5.57;;;;;;;3.77;79.92;100437.22;5103875;28;20024;-66
2021/04/04 04:46:17;;;;;;;23.20;7.90;;;;;;;3.81;79.86;100441.59;5103722;28;20028;-66
2021/04/04 04:48:44;;;;;;;21.00;8.60;;;;;;;3.81;79.59;100427.88;5103641;28;20035;-66
2021/04/04 04:51:10;;;;;;;25.38;8.15;;;;;;;3.80;80.18;100433.88;5103422;28;20702;-66
2021/04/04 04:53:37;;;;;;;22.63;6.13;;;;;;;3.72;80.25;100414.03;5103651;28;20388;-65
2021/04/04 04:56:04;;;;;;;22.55;6.35;;;;;;;3.76;80.42;100412.41;5104929;28;20024;-67
2021/04/04 04:58:31;;;;;;;30.20;8.65;;;;;;;3.74;80.70;100405.50;5107847;28;20032;-67
2021/04/04 05:01:03;;;;;;;24.33;6.80;;;;;;;3.66;81.40;100383.09;5107569;28;20027;-67
2021/04/04 05:03:28;;;;;;;;;;;;;;;3.71;81.61;100376.34;5089854;28;20024;-66
2021/04/04 05:05:53;;;;;;;25.27;6.97;;;;;;;3.62;81.92;100368.47;5107349;28;19908;-66
2021/04/04 05:08:20;;;;;;;13.13;5.57;;;;;;;3.55;82.12;100367.47;5107764;28;20024;-67
2021/04/04 05:10:46;;;;;;;24.52;6.38;;;;;;;3.55;82.42;100371.75;5107520;28;20016;-66
2021/04/04 05:13:13;;;;;;;21.67;7.40;;;;;;;3.47;82.47;100359.63;5107492;28;20038;-67
2021/04/04 05:15:40;;;;;;;16.23;5.00;;;;;;;3.44;82.66;100338.16;5107359;28;20075;-67
2021/04/04 05:18:06;;;;;;;30.25;9.75;;;;;;;3.44;82.87;100338.16;5107596;28;20020;-67
2021/04/04 05:20:31;;;;;;;30.58;8.40;;;;;;;3.48;83.10;100345.09;5107194;28;20127;-69
2021/04/04 05:22:57;;;;;;;21.30;8.15;;;;;;;3.55;82.90;100336.69;5107049;28;20074;-67
2021/04/04 05:25:23;;;;;;;26.48;8.27;;;;;;;3.53;82.90;100322.09;5088907;28;20024;-67
2021/04/04 05:27:49;;;;;;;31.67;10.20;;;;;;;3.50;83.29;100320.31;5107019;28;20052;-67
2021/04/04 05:30:15;;;;;;;25.15;5.60;;;;;;;3.50;83.42;100317.75;5107151;28;20020;-68
2021/04/04 05:32:47;;;;;;;45.97;9.70;;;;;;;3.52;83.63;100310.94;5107129;28;20017;-67
2021/04/04 05:35:21;;;;;;;21.17;6.70;;;;;;;3.58;83.59;100315.31;5088777;28;20035;-65
2021/04/04 05:37:48;;;;;;;34.67;8.98;;;;;;;3.62;83.46;100316.25;5106921;28;20020;-66
2021/04/04 05:40:28;;;;;;;34.58;9.73;;;;;;;3.68;83.23;100324.94;5106854;28;20488;-65
2021/04/04 05:43:23;;;;;;;19.77;5.10;;;;;;;3.70;83.32;100323.28;5106931;28;20510;-66
2021/04/04 05:46:03;;;;;;;24.85;6.53;;;;;;;3.68;83.24;100330.06;5106874;28;20020;-66
2021/04/04 05:48:38;;;;;;;26.95;8.18;;;;;;;3.74;83.28;100333.59;5107066;28;20115;-66
2021/04/04 05:51:13;;;;;;;35.63;9.55;;;;;;;3.76;83.22;100339.63;5106534;28;20514;-66
2021/04/04 05:53:57;;;;;;;33.72;9.70;;;;;;;3.86;83.14;100348.34;5106636;28;20031;-66
2021/04/04 05:56:27;;;;;;;32.70;8.10;;;;;;;3.93;82.76;100356.19;5106851;28;20058;-66
2021/04/04 05:59:06;;;;;;;36.60;8.27;;;;;;;3.95;82.53;100344.25;5106596;28;20092;-66
2021/04/04 06:01:32;;;;;;;28.95;7.88;;;;;;;4.03;82.24;100343.50;5106536;28;20019;-66
2021/04/04 06:04:36;;;;;;;21.25;5.32;;;;;;;4.08;81.88;100344.47;5106642;28;20055;-68
2021/04/04 06:07:04;;;;;;;13.63;4.60;;;;;;;4.14;81.59;100334.28;5105737;28;20514;-66
2021/04/04 06:09:29;;;;;;;35.58;10.82;;;;;;;4.16;81.15;100334.31;5106155;28;20024;-67
2021/04/04 06:12:17;;;;;;;18.55;6.70;;;;;;;4.19;81.12;100322.41;5106526;28;20051;-67
2021/04/04 06:15:06;;;;;;;29.63;8.23;;;;;;;4.24;80.86;100319.03;5106586;28;20028;-66
2021/04/04 06:17:46;;;;;;;30.48;7.68;;;;;;;4.29;80.60;100302.84;5106571;28;20052;-67
2021/04/04 06:20:48;;;;;;;33.22;7.25;;;;;;;4.36;80.33;100308.09;5106425;28;20055;-67
2021/04/04 06:23:30;;;;;;;34.85;8.05;;;;;;;4.40;80.21;100303.03;5106266;28;20028;-67
2021/04/04 06:26:12;;;;;;;27.83;8.25;;;;;;;4.48;80.00;100310.84;5106482;28;20032;-67
2021/04/04 06:29:08;;;;;;;32.08;9.05;;;;;;;4.50;79.73;100296.31;5106348;28;20051;-67
2021/04/04 06:31:57;;;;;;;30.70;9.20;;;;;;;4.69;79.59;100287.16;5106190;28;20141;-66
2021/04/04 06:34:33;;;;;;;31.38;8.95;;;;;;;4.77;79.31;100276.97;5106176;28;20030;-67
2021/04/04 06:37:36;;;;;;;26.52;8.18;;;;;;;4.85;78.87;100287.34;5105859;28;20023;-67
2021/04/04 06:40:13;;;;;;;29.08;8.02;;;;;;;4.91;78.45;100289.13;5105825;28;20054;-67
2021/04/04 06:42:56;;;;;;;26.98;7.78;;;;;;;5.02;78.13;100284.13;5105650;28;20024;-67
2021/04/04 06:45:34;;;;;;;23.83;7.70;;;;;;;5.03;77.36;100280.72;5105848;28;20028;-67
2021/04/04 06:48:05;;;;;;;26.02;8.18;;;;;;;5.16;77.11;100284.31;5105614;28;20057;-68
2021/04/04 06:50:37;;;;;;;27.30;8.30;;;;;;;5.19;76.93;100274.91;5087363;28;20020;-67
2021/04/04 06:53:20;;;;;;;30.80;8.25;;;;;;;5.33;77.03;100261.34;5105387;28;20032;-67
2021/04/04 06:56:01;;;;;;;31.90;7.95;;;;;;;5.45;76.69;100261.47;5105632;28;20039;-68
2021/04/04 06:58:32;;;;;;;23.67;7.38;;;;;;;5.52;75.62;100246.94;5105760;28;20024;-69
2021/04/04 07:01:11;;;;;;;28.40;9.52;;;;;;;5.50;75.28;100250.34;5105432;28;20020;-67
2021/04/04 07:03:48;;;;;;;28.92;8.32;;;;;;;5.51;75.51;100240.03;5105362;28;20049;-68
2021/04/04 07:06:23;;;;;;;24.58;7.72;;;;;;;5.56;75.09;100240.09;5105037;28;20308;-67
2021/04/04 07:09:26;;;;;;;19.48;5.63;;;;;;;5.58;74.72;100236.69;5105187;28;20020;-68
2021/04/04 07:11:57;;;;;;;32.03;8.02;;;;;;;5.65;74.86;100235.06;5104846;28;20374;-67
2021/04/04 07:14:48;;;;;;;27.00;6.47;;;;;;;5.73;74.75;100234.25;5087023;28;20039;-67
2021/04/04 07:17:42;;;;;;;25.47;6.07;;;;;;;5.88;74.45;100224.06;5105023;28;20034;-67
2021/04/04 07:20:13;;;;;;;17.58;5.85;;;;;;;5.97;74.06;100219.84;5104728;28;20016;-69
2021/04/04 07:22:56;;;;;;;26.70;6.10;;;;;;;6.16;73.89;100218.28;5104444;28;20020;-69
2021/04/04 07:25:22;;;;;;;30.42;7.60;;;;;;;6.32;73.17;100208.94;5104902;28;20024;-68
2021/04/04 07:28:25;;;;;;;25.30;5.97;;;;;;;6.41;72.38;100206.41;5104553;28;20059;-68
2021/04/04 07:30:56;;;;;;;26.42;7.95;;;;;;;6.35;72.43;100202.91;5104679;28;20016;-67
2021/04/04 07:33:41;;;;;;;26.05;8.02;;;;;;;6.37;72.65;100219.28;5104740;28;20031;-67
2021/04/04 07:36:31;;;;;;;36.13;8.95;;;;;;;6.40;72.53;100217.59;5104482;28;20082;-68
2021/04/04 07:39:22;;;;;;;19.55;5.65;;;;;;;6.40;71.99;100215.00;5104496;28;20020;-68
2021/04/04 07:41:56;;;;;;;28.15;6.43;;;;;;;6.45;72.15;100204.72;5104348;28;20039;-67
2021/04/04 07:44:30;;;;;;;28.15;6.60;;;;;;;6.57;72.33;100203.91;5104632;28;20020;-69
2021/04/04 07:47:32;;;;;;;30.42;7.32;;;;;;;6.82;71.43;100210.03;5104322;28;20423;-69
2021/04/04 07:50:02;;;;;;;21.42;4.60;;;;;;;6.90;71.35;100192.00;5104390;28;20024;-69
2021/04/04 07:53:07;;;;;;;17.83;5.90;;;;;;;7.17;70.76;100194.66;5085775;28;20083;-69
2021/04/04 07:55:46;;;;;;;26.58;6.10;;;;;;;7.48;70.24;100181.78;5089747;28;20032;-69
2021/04/04 07:58:24;;;;;;;22.38;4.97;;;;;;;8.02;68.76;100180.06;5104590;28;20024;-68
2021/04/04 08:01:02;;;;;;;30.92;6.60;;;;;;;8.30;67.81;100182.56;5103972;28;20048;-69
2021/04/04 08:03:38;;;;;;;22.83;6.45;;;;;;;8.36;66.02;100179.97;5104330;28;20076;-69
2021/04/04 08:06:13;;;;;;;25.80;5.53;;;;;;;8.27;66.54;100180.00;5103959;28;20031;-68
2021/04/04 08:08:51;;;;;;;24.60;5.65;;;;;;;8.15;66.83;100173.97;5104144;28;20099;-69
2021/04/04 08:11:26;;;;;;;25.55;6.90;;;;;;;8.08;66.50;100167.13;5104161;28;20031;-70
2021/04/04 08:14:00;;;;;;;22.85;5.40;;;;;;;8.06;66.79;100161.06;5103917;28;20050;-67
2021/04/04 08:16:42;;;;;;;15.38;3.60;;;;;;;7.96;66.55;100155.06;5104190;28;20031;-67
2021/04/04 08:19:11;;;;;;;25.13;5.95;;;;;;;7.83;67.48;100143.88;5103670;28;20499;-67
2021/04/04 08:21:46;;;;;;;27.73;6.90;;;;;;;8.08;67.70;100142.97;5103414;28;20481;-66
2021/04/04 08:24:19;;;;;;;30.10;6.63;;;;;;;8.42;67.03;100148.91;5103764;28;20034;-67
2021/04/04 08:26:51;;;;;;;27.55;7.35;;;;;;;8.73;66.11;100142.78;5103416;28;20101;-68
2021/04/04 08:29:32;;;;;;;28.40;7.13;;;;;;;8.97;65.02;100146.09;5104005;28;20051;-69
2021/04/04 08:32:05;;;;;;;24.55;5.85;;;;;;;8.93;64.07;100139.19;5103174;28;20059;-69
2021/04/04 08:34:40;;;;;;;26.60;4.57;;;;;;;8.96;64.30;100130.56;5103425;28;20084;-67
2021/04/04 08:37:14;;;;;;;24.30;5.32;;;;;;;9.04;63.53;100123.63;5103003;28;20020;-66
2021/04/04 08:39:46;;;;;;;21.45;6.53;;;;;;;8.99;63.04;100122.78;5085159;28;20043;-67
2021/04/04 08:42:16;;;;;;;29.80;5.68;;;;;;;9.08;63.55;100120.13;5103306;28;20107;-71
2021/04/04 08:44:49;;;;;;;28.67;5.55;;;;;;;9.38;62.86;100110.41;5103517;28;20290;-67
2021/04/04 08:47:28;;;;;;;18.52;4.28;;;;;;;9.76;61.78;100116.09;5103459;28;20051;-68
2021/04/04 08:49:56;;;;;;;21.00;5.25;;;;;;;9.94;60.77;100106.44;5103495;28;20020;-66
2021/04/04 08:52:30;;;;;;;17.38;4.45;;;;;;;10.01;60.48;100094.25;5102812;28;20039;-67
2021/04/04 08:54:56;;;;;;;18.05;4.95;;;;;;;10.45;59.83;100101.53;5103082;28;20035;-67
2021/04/04 08:57:44;;;;;;;18.42;5.50;;;;;;;10.95;58.95;100091.34;5103290;28;20021;-67
2021/04/04 09:00:11;;;;;;;19.60;5.40;;;;;;;11.44;57.73;100085.38;5103081;28;20032;-68
2021/04/04 09:03:07;;;;;;;16.15;3.95;;;;;;;11.94;56.01;100084.47;5103005;28;20388;-67
2021/04/04 09:05:36;;;;;;;24.60;5.72;;;;;;;12.29;54.69;100075.13;5103325;28;20020;-67
2021/04/04 09:08:05;;;;;;;19.05;4.43;;;;;;;12.89;53.96;100085.13;5102911;28;20042;-66
2021/04/04 09:10:38;;;;;;;24.77;4.22;;;;;;;13.02;51.43;100077.84;5103129;28;20472;-68
2021/04/04 09:13:14;;;;;;;22.83;4.20;;;;;;;13.41;50.79;100086.50;5103344;28;20028;-67
2021/04/04 09:16:09;;;;;;;20.52;4.78;;;;;;;13.72;50.43;100073.53;5103203;28;20059;-67
2021/04/04 09:18:52;;;;;;;20.45;4.82;;;;;;;14.41;47.94;100081.22;5081097;28;20064;-67
2021/04/04 09:21:22;;;;;;;14.15;4.03;;;;;;;14.54;46.66;100087.78;5102798;28;20480;-67
2021/04/04 09:23:54;;;;;;;17.88;4.07;;;;;;;14.59;46.09;100085.88;5102789;28;20024;-67
2021/04/04 09:26:25;;;;;;;16.10;3.65;;;;;;;14.71;46.31;100095.09;5102942;28;20480;-67
2021/04/04 09:28:55;;;;;;;16.83;4.43;;;;;;;15.26;44.91;100082.97;5103212;28;20103;-67
2021/04/04 09:31:25;;;;;;;23.10;4.72;;;;;;;15.50;44.05;100075.19;5103239;28;20039;-68
2021/04/04 09:34:04;;;;;;;19.38;4.80;;;;;;;15.32;44.34;100071.47;5103117;28;20028;-68
2021/04/04 09:36:49;;;;;;;20.35;4.25;;;;;;;14.93;43.98;100065.72;5103033;28;20076;-68
2021/04/04 09:39:17;;;;;;;9.00;2.95;;;;;;;14.59;44.61;100057.16;5103205;28;20546;-67
2021/04/04 09:41:44;;;;;;;14.57;3.33;;;;;;;14.72;44.60;100047.19;5102881;28;20024;-67
2021/04/04 09:44:10;;;;;;;19.45;4.28;;;;;;;14.99;44.40;100043.75;5105926;28;20503;-68
2021/04/04 09:46:54;;;;;;;14.20;3.45;;;;;;;15.74;42.71;100049.94;5107033;28;20020;-66
2021/04/04 09:49:33;;;;;;;14.40;4.22;;;;;;;16.12;41.52;100050.38;5106624;28;20132;-68
2021/04/04 09:51:58;;;;;;;16.15;4.30;;;;;;;16.46;41.58;100030.75;5105860;28;20081;-71
2021/04/04 09:54:24;;;;;;;16.55;4.30;;;;;;;16.88;39.79;100023.00;5106758;28;20024;-69
2021/04/04 09:56:57;;;;;;;12.90;3.50;;;;;;;17.45;39.11;100018.00;5106830;28;20067;-69
2021/04/04 09:59:28;;;;;;;18.98;3.42;;;;;;;18.04;38.46;100011.91;5106743;28;20027;-69
2021/04/04 10:01:54;;;;;;;11.90;3.28;;;;;;;18.64;35.59;100006.56;5106384;28;20083;-68
2021/04/04 10:04:19;;;;;;;18.25;3.53;;;;;;;18.29;35.01;99992.38;5088318;28;20055;-69
2021/04/04 10:07:00;;;;;;;20.27;3.65;;;;;;;18.02;36.13;99984.03;5106199;28;20051;-67
2021/04/04 10:09:39;;;;;;;24.50;4.32;;;;;;;18.21;35.56;99957.78;5088284;28;20016;-69
2021/04/04 10:12:05;;;;;;;14.18;3.25;;;;;;;18.37;35.37;99951.78;5106274;28;20016;-69
2021/04/04 10:14:31;;;;;;;11.18;3.53;;;;;;;18.72;35.40;99951.81;5106508;28;20055;-70
2021/04/04 10:17:13;;;;;;;12.35;3.67;;;;;;;19.29;33.73;99944.59;5106399;28;20095;-69
2021/04/04 10:19:55;;;;;;;;;;;;;;;19.52;33.87;99932.00;5106775;28;20452;-69
2021/04/04 10:22:20;;;;;;;11.85;3.28;;;;;;;19.45;32.76;99918.31;5105747;28;19908;-68
2021/04/04 10:24:46;;;;;;;12.02;4.15;;;;;;;19.16;32.50;99899.66;5106240;28;20115;-68
2021/04/04 10:27:18;;;;;;;14.45;3.67;;;;;;;18.88;33.29;99915.06;5105917;28;20040;-68
2021/04/04 10:29:46;;;;;;;11.60;2.78;;;;;;;18.77;33.35;99923.50;5106384;28;20016;-67
2021/04/04 10:32:11;;;;;;;17.05;3.28;;;;;;;18.85;32.72;99932.78;5106008;28;20047;-69
2021/04/04 10:34:45;;;;;;;13.98;3.50;;;;;;;18.86;33.51;99922.19;5105954;28;20039;-68
2021/04/04 10:37:10;;;;;;;10.98;2.72;;;;;;;18.91;32.58;99927.22;5105587;28;20049;-68
2021/04/04 10:39:37;;;;;;;4.32;1.73;;;;;;;18.57;33.53;99906.97;5106144;28;20024;-68
2021/04/04 10:42:13;;;;;;;13.57;3.65;;;;;;;17.99;34.93;99887.81;5105499;28;20021;-69
2021/04/04 10:44:39;;;;;;;15.05;3.13;;;;;;;17.81;35.29;99908.78;5105561;28;20020;-68
2021/04/04 10:47:30;;;;;;;18.42;3.35;;;;;;;17.60;36.12;99910.66;5105595;28;20076;-70
2021/04/04 10:49:57;;;;;;;14.45;2.92;;;;;;;17.77;35.78;99909.84;5100834;28;20032;-69
2021/04/04 10:52:22;;;;;;;13.70;3.28;;;;;;;17.58;35.94;99905.47;5105403;28;20028;-69
2021/04/04 10:54:49;;;;;;;10.65;2.80;;;;;;;16.94;37.30;99892.50;5087376;28;20205;-69
2021/04/04 10:57:15;;;;;;;10.23;3.13;;;;;;;16.44;38.64;99885.84;5105653;28;20028;-69
2021/04/04 10:59:40;;;;;;;13.05;3.17;;;;;;;16.29;39.47;99882.13;5105684;28;20059;-69
2021/04/04 11:02:08;;;;;;;10.32;2.67;;;;;;;16.24;39.53;99882.31;5105449;28;20016;-69
2021/04/04 11:04:34;;;;;;;18.67;3.60;;;;;;;15.98;40.23;99892.03;5105496;28;20111;-70
2021/04/04 11:07:00;;;;;;;11.82;2.95;;;;;;;15.85;40.42;99902.97;5105342;28;20085;-70
2021/04/04 11:09:29;;;;;;;11.43;2.80;;;;;;;15.28;41.46;99889.41;5106312;28;20077;-69
2021/04/04 11:11:59;;;;;;;15.73;3.13;;;;;;;15.00;42.19;99888.63;5105452;28;20556;-71
2021/04/04 11:14:26;;;;;;;10.05;2.40;;;;;;;14.48;43.41;99892.09;5105802;28;20060;-72
2021/04/04 11:16:55;;;;;;;15.55;3.60;;;;;;;13.91;44.64;99881.69;5105462;28;20024;-71
2021/04/04 11:19:26;;;;;;;7.18;2.50;;;;;;;13.82;45.40;99881.06;5105580;28;20040;-72
2021/04/04 11:21:58;;;;;;;14.82;3.17;;;;;;;13.59;45.73;99881.78;5105255;28;20512;-68
2021/04/04 11:24:24;;;;;;;22.77;3.65;;;;;;;13.35;46.13;99877.19;5105419;28;20114;-70
2021/04/04 11:26:52;;;;;;;10.00;2.55;;;;;;;13.14;47.20;99869.09;5104824;28;20150;-69
2021/04/04 11:29:25;;;;;;;12.38;2.92;;;;;;;13.08;47.29;99869.22;5105087;28;20434;-70
2021/04/04 11:31:52;;;;;;;14.32;2.38;;;;;;;12.88;48.16;99852.41;5105127;28;20032;-70
2021/04/04 11:34:33;;;;;;;12.52;2.63;;;;;;;12.59;48.44;99855.75;5104891;28;20024;-71
2021/04/04 11:37:06;;;;;;;14.52;4.03;;;;;;;12.37;49.36;99849.38;5086351;28;20024;-70
2021/04/04 11:39:32;;;;;;;13.85;2.92;;;;;;;12.20;50.21;99848.94;5104449;28;20024;-69
2021/04/04 11:42:01;;;;;;;9.35;2.20;;;;;;;11.96;50.38;99841.66;5104578;28;20026;-69
2021/04/04 11:44:38;;;;;;;16.00;2.95;;;;;;;11.64;51.59;99833.69;5104863;28;20024;-70
2021/04/04 11:47:16;;;;;;;17.45;3.13;;;;;;;11.69;51.71;99840.53;5104665;28;20095;-68
2021/04/04 11:49:46;;;;;;;7.22;2.05;;;;;;;11.69;52.16;99825.78;5104724;28;20028;-70